Aérodrome :
LOGIN :

S'inscrire | Disclaimer

   EN    FR    IT 

 










Légende :    VFR   VFR Marginal   IFR   IFR Intensif   IFR Très Intensif
Visi : 
Plafond : 
>= 8 km
>= 3000ft
5 à 8 km
1000 à 3000 ft
1500m à 5 km
500 à 1000 ft
800 à 1500m
200 à 500 ft
< 800m
< 200 ft
Symboles :   Orages  Brouillard  Fortes neiges  Fortes précipitations  Vent > 20 kt
SIGMETs :   Divers  Orages  Givrage  Turbulence  Onde Orograph.  Cendres Volcan.






- Altitude de l'aérodrome : 231 ft
- Code IATA : WTN


EGXW - RAF Waddington

METARs EXPIRÉS :
  • 011621Z 25009KT 9999 FEW040 BKN080 19/09 Q1014 NOSIG RMK BLU BLU
  • 012050Z AUTO 20007KT 9999 NCD 15/09 Q1016
  • 011950Z AUTO 22007KT 9999 FEW070/// 17/09 Q1015
  • 010450Z AUTO 24008KT 9999 OVC060/// 12/11 Q1013

TAF TAF EGXW
Valide du 01 à 18h jusqu'au 02 à 12h UTC


011625Z 0118/0212 24012KT 9999 FEW040
PROB30
TEMPO 0208/0212 7000 -RA BKN020



MET'MAP, la Météo Aéronautique d'un coup d'oeil ! - Copyright ORBIFLY Décembre 2007 - Disclaimer

ORBIFLY MET'MAP TEAM :

Programmation & Développement : Alexandra Zaïnal
Sur une idée originale de : Baudouin d'Aumeries
Soutien technique & logistique : Manuel Goepfert
Assistance : Marc-Olivier Méhu




SOURCES & CREDITS :

   NOAA